Terminal Aerodrome Forecast
Issued by NWS

Home | Current Version | Previous Version | Text Only | Print | Product List | Glossary On
Versions: 1 2 3 4 5 6 7 8 9 10 11 12 13 14 15 16 17 18 19 20 21 22 23 24 25 26 27 28 29 30 31
000
FTUS43 KSGF 261045 AAB
TAFBBG
TAF AMD
KBBG 261045Z 2611/2706 14005KT 2SM BR SCT002 SCT025
     FM261200 15005KT 3SM BR SCT004 BKN020
     FM261500 15007KT 6SM HZ SCT007 BKN025
     FM261800 16010KT P6SM VCTS BKN015CB
     FM262100 16010KT P6SM VCTS BKN030CB
     FM270000 16005KT P6SM SCT035 OVC200=

USA.gov is the U.S. government's official web portal to all federal, state and local government web resources and services.